sensor_id;sensor_type;location;lat;lon;timestamp;P1;durP1;ratioP1;P2;durP2;ratioP2
47259;SDS011;32999;52.412;4.890;2022-09-13T00:00:15;16.02;;;11.38;;
47259;SDS011;32999;52.412;4.890;2022-09-13T00:05:19;17.90;;;12.98;;
47259;SDS011;32999;52.412;4.890;2022-09-13T00:10:21;17.55;;;13.20;;
47259;SDS011;32999;52.412;4.890;2022-09-13T00:15:23;16.13;;;12.25;;
47259;SDS011;32999;52.412;4.890;2022-09-13T00:20:26;13.57;;;11.68;;
47259;SDS011;32999;52.412;4.890;2022-09-13T00:25:28;16.42;;;11.82;;
47259;SDS011;32999;52.412;4.890;2022-09-13T00:30:30;16.75;;;12.20;;
47259;SDS011;32999;52.412;4.890;2022-09-13T00:35:33;15.23;;;11.70;;
47259;SDS011;32999;52.412;4.890;2022-09-13T00:45:37;13.40;;;11.73;;
47259;SDS011;32999;52.412;4.890;2022-09-13T00:50:42;13.52;;;11.13;;
47259;SDS011;32999;52.412;4.890;2022-09-13T00:55:47;14.45;;;10.93;;
47259;SDS011;32999;52.412;4.890;2022-09-13T01:00:53;17.17;;;12.27;;
47259;SDS011;32999;52.412;4.890;2022-09-13T01:06:01;13.65;;;11.18;;
47259;SDS011;32999;52.412;4.890;2022-09-13T01:11:05;14.32;;;10.63;;
47259;SDS011;32999;52.412;4.890;2022-09-13T01:16:12;12.73;;;9.93;;
47259;SDS011;32999;52.412;4.890;2022-09-13T01:27:04;11.77;;;9.05;;
47259;SDS011;32999;52.412;4.890;2022-09-13T01:32:59;11.15;;;8.82;;
47259;SDS011;32999;52.412;4.890;2022-09-13T01:38:22;13.50;;;8.80;;
47259;SDS011;32999;52.412;4.890;2022-09-13T01:43:37;12.00;;;8.15;;
47259;SDS011;32999;52.412;4.890;2022-09-13T01:48:53;11.35;;;7.85;;
47259;SDS011;32999;52.412;4.890;2022-09-13T01:54:02;10.52;;;6.57;;
47259;SDS011;32999;52.412;4.890;2022-09-13T01:59:13;8.37;;;6.57;;
47259;SDS011;32999;52.412;4.890;2022-09-13T02:04:20;9.88;;;6.82;;
47259;SDS011;32999;52.412;4.890;2022-09-13T02:09:27;10.20;;;6.40;;
47259;SDS011;32999;52.412;4.890;2022-09-13T02:14:33;11.48;;;7.65;;
47259;SDS011;32999;52.412;4.890;2022-09-13T02:19:40;14.00;;;6.53;;
47259;SDS011;32999;52.412;4.890;2022-09-13T02:24:46;9.35;;;6.65;;
47259;SDS011;32999;52.412;4.890;2022-09-13T02:29:52;11.68;;;6.13;;
47259;SDS011;32999;52.412;4.890;2022-09-13T02:35:00;9.07;;;5.95;;
47259;SDS011;32999;52.412;4.890;2022-09-13T02:40:06;11.15;;;6.03;;
47259;SDS011;32999;52.412;4.890;2022-09-13T02:45:14;13.80;;;8.02;;
47259;SDS011;32999;52.412;4.890;2022-09-13T02:50:20;16.15;;;9.07;;
47259;SDS011;32999;52.412;4.890;2022-09-13T02:55:36;14.40;;;9.25;;
47259;SDS011;32999;52.412;4.890;2022-09-13T03:00:43;16.70;;;9.57;;
47259;SDS011;32999;52.412;4.890;2022-09-13T03:05:47;15.97;;;10.53;;
47259;SDS011;32999;52.412;4.890;2022-09-13T03:10:52;16.63;;;10.02;;
47259;SDS011;32999;52.412;4.890;2022-09-13T03:16:06;16.08;;;10.73;;
47259;SDS011;32999;52.412;4.890;2022-09-13T03:21:25;24.05;;;11.73;;
47259;SDS011;32999;52.412;4.890;2022-09-13T03:26:44;16.08;;;11.98;;
47259;SDS011;32999;52.412;4.890;2022-09-13T03:32:01;19.45;;;11.32;;
47259;SDS011;32999;52.412;4.890;2022-09-13T03:37:19;19.05;;;10.90;;
47259;SDS011;32999;52.412;4.890;2022-09-13T03:42:27;17.38;;;11.48;;
47259;SDS011;32999;52.412;4.890;2022-09-13T03:47:40;17.70;;;11.27;;
47259;SDS011;32999;52.412;4.890;2022-09-13T03:52:47;18.70;;;10.85;;
47259;SDS011;32999;52.412;4.890;2022-09-13T03:57:52;17.98;;;10.95;;
47259;SDS011;32999;52.412;4.890;2022-09-13T04:02:54;19.92;;;12.40;;
47259;SDS011;32999;52.412;4.890;2022-09-13T04:07:57;18.40;;;10.90;;
47259;SDS011;32999;52.412;4.890;2022-09-13T04:13:00;16.67;;;10.43;;
47259;SDS011;32999;52.412;4.890;2022-09-13T04:18:02;18.40;;;11.15;;
47259;SDS011;32999;52.412;4.890;2022-09-13T04:23:06;13.90;;;10.50;;
47259;SDS011;32999;52.412;4.890;2022-09-13T04:28:07;20.50;;;11.60;;
47259;SDS011;32999;52.412;4.890;2022-09-13T04:33:09;15.38;;;11.90;;
47259;SDS011;32999;52.412;4.890;2022-09-13T04:38:13;17.70;;;11.98;;
47259;SDS011;32999;52.412;4.890;2022-09-13T04:48:17;18.13;;;11.75;;
47259;SDS011;32999;52.412;4.890;2022-09-13T04:53:20;17.33;;;11.90;;
47259;SDS011;32999;52.412;4.890;2022-09-13T04:58:22;16.37;;;11.70;;
47259;SDS011;32999;52.412;4.890;2022-09-13T05:03:23;15.57;;;10.30;;
47259;SDS011;32999;52.412;4.890;2022-09-13T05:08:26;11.25;;;6.93;;
47259;SDS011;32999;52.412;4.890;2022-09-13T05:13:28;8.88;;;5.55;;
47259;SDS011;32999;52.412;4.890;2022-09-13T05:18:31;10.35;;;4.75;;
47259;SDS011;32999;52.412;4.890;2022-09-13T05:23:35;9.80;;;4.13;;
47259;SDS011;32999;52.412;4.890;2022-09-13T05:28:37;10.63;;;3.20;;
47259;SDS011;32999;52.412;4.890;2022-09-13T05:33:39;8.90;;;3.70;;
47259;SDS011;32999;52.412;4.890;2022-09-13T05:38:42;10.77;;;3.40;;
47259;SDS011;32999;52.412;4.890;2022-09-13T05:43:43;7.75;;;2.72;;
47259;SDS011;32999;52.412;4.890;2022-09-13T05:48:45;7.72;;;1.95;;
47259;SDS011;32999;52.412;4.890;2022-09-13T05:53:49;7.60;;;2.90;;
47259;SDS011;32999;52.412;4.890;2022-09-13T05:58:52;3.17;;;1.65;;
47259;SDS011;32999;52.412;4.890;2022-09-13T06:03:54;3.67;;;1.20;;
47259;SDS011;32999;52.412;4.890;2022-09-13T06:08:58;8.00;;;1.87;;
47259;SDS011;32999;52.412;4.890;2022-09-13T06:14:00;9.00;;;1.70;;
47259;SDS011;32999;52.412;4.890;2022-09-13T06:19:02;7.53;;;1.48;;
47259;SDS011;32999;52.412;4.890;2022-09-13T06:24:05;7.07;;;1.58;;
47259;SDS011;32999;52.412;4.890;2022-09-13T06:29:09;6.43;;;1.60;;
47259;SDS011;32999;52.412;4.890;2022-09-13T06:34:21;9.73;;;1.52;;
47259;SDS011;32999;52.412;4.890;2022-09-13T06:39:24;5.07;;;1.38;;
47259;SDS011;32999;52.412;4.890;2022-09-13T06:44:25;6.60;;;1.58;;
47259;SDS011;32999;52.412;4.890;2022-09-13T06:49:27;5.15;;;1.40;;
47259;SDS011;32999;52.412;4.890;2022-09-13T06:59:50;3.63;;;0.82;;
47259;SDS011;32999;52.412;4.890;2022-09-13T07:04:52;5.07;;;1.40;;
47259;SDS011;32999;52.412;4.890;2022-09-13T07:09:59;4.10;;;1.40;;
47259;SDS011;32999;52.412;4.890;2022-09-13T07:15:01;5.20;;;1.33;;
47259;SDS011;32999;52.412;4.890;2022-09-13T07:20:11;4.53;;;1.40;;
47259;SDS011;32999;52.412;4.890;2022-09-13T07:25:16;4.05;;;0.80;;
47259;SDS011;32999;52.412;4.890;2022-09-13T07:30:26;4.93;;;1.50;;
47259;SDS011;32999;52.412;4.890;2022-09-13T07:35:27;3.40;;;0.77;;
47259;SDS011;32999;52.412;4.890;2022-09-13T07:40:31;5.88;;;1.08;;
47259;SDS011;32999;52.412;4.890;2022-09-13T07:45:35;3.70;;;0.90;;
47259;SDS011;32999;52.412;4.890;2022-09-13T07:50:40;5.00;;;1.10;;
47259;SDS011;32999;52.412;4.890;2022-09-13T07:55:44;4.47;;;1.63;;
47259;SDS011;32999;52.412;4.890;2022-09-13T08:00:46;4.83;;;1.27;;
47259;SDS011;32999;52.412;4.890;2022-09-13T08:05:47;5.68;;;1.58;;
47259;SDS011;32999;52.412;4.890;2022-09-13T08:10:50;5.30;;;1.42;;
47259;SDS011;32999;52.412;4.890;2022-09-13T08:15:53;7.73;;;2.40;;
47259;SDS011;32999;52.412;4.890;2022-09-13T08:20:56;4.32;;;1.35;;
47259;SDS011;32999;52.412;4.890;2022-09-13T08:31:04;4.43;;;1.40;;
47259;SDS011;32999;52.412;4.890;2022-09-13T08:36:06;5.00;;;1.52;;
47259;SDS011;32999;52.412;4.890;2022-09-13T08:41:18;8.75;;;1.90;;
47259;SDS011;32999;52.412;4.890;2022-09-13T08:46:41;6.13;;;1.75;;
47259;SDS011;32999;52.412;4.890;2022-09-13T08:51:47;7.03;;;1.50;;
47259;SDS011;32999;52.412;4.890;2022-09-13T08:56:54;3.55;;;1.60;;
47259;SDS011;32999;52.412;4.890;2022-09-13T09:02:05;8.65;;;1.67;;
47259;SDS011;32999;52.412;4.890;2022-09-13T09:07:18;7.72;;;1.63;;
47259;SDS011;32999;52.412;4.890;2022-09-13T09:12:26;5.57;;;1.52;;
47259;SDS011;32999;52.412;4.890;2022-09-13T09:17:39;2.70;;;1.00;;
47259;SDS011;32999;52.412;4.890;2022-09-13T09:22:46;4.30;;;1.08;;
47259;SDS011;32999;52.412;4.890;2022-09-13T09:27:53;7.30;;;1.15;;
47259;SDS011;32999;52.412;4.890;2022-09-13T09:33:00;4.28;;;1.40;;
47259;SDS011;32999;52.412;4.890;2022-09-13T09:38:27;6.47;;;1.10;;
47259;SDS011;32999;52.412;4.890;2022-09-13T09:43:40;2.30;;;0.98;;
47259;SDS011;32999;52.412;4.890;2022-09-13T09:48:47;3.40;;;1.13;;
47259;SDS011;32999;52.412;4.890;2022-09-13T09:53:56;4.68;;;1.30;;
47259;SDS011;32999;52.412;4.890;2022-09-13T09:59:10;3.10;;;0.90;;
47259;SDS011;32999;52.412;4.890;2022-09-13T10:04:26;9.80;;;5.32;;
47259;SDS011;32999;52.412;4.890;2022-09-13T10:09:29;5.60;;;1.27;;
47259;SDS011;32999;52.412;4.890;2022-09-13T10:20:17;3.73;;;0.60;;
47259;SDS011;32999;52.412;4.890;2022-09-13T10:25:22;2.55;;;1.10;;
47259;SDS011;32999;52.412;4.890;2022-09-13T10:30:31;4.25;;;0.98;;
47259;SDS011;32999;52.412;4.890;2022-09-13T10:35:36;4.55;;;1.30;;
47259;SDS011;32999;52.412;4.890;2022-09-13T10:40:38;4.60;;;1.27;;
47259;SDS011;32999;52.412;4.890;2022-09-13T10:45:41;4.07;;;1.10;;
47259;SDS011;32999;52.412;4.890;2022-09-13T10:50:58;10.00;;;1.00;;
47259;SDS011;32999;52.412;4.890;2022-09-13T10:56:02;6.00;;;1.60;;
47259;SDS011;32999;52.412;4.890;2022-09-13T11:01:15;5.55;;;0.80;;
47259;SDS011;32999;52.412;4.890;2022-09-13T11:06:33;4.75;;;1.20;;
47259;SDS011;32999;52.412;4.890;2022-09-13T11:11:42;3.58;;;1.13;;
47259;SDS011;32999;52.412;4.890;2022-09-13T11:16:57;3.15;;;1.10;;
47259;SDS011;32999;52.412;4.890;2022-09-13T11:22:15;5.07;;;0.82;;
47259;SDS011;32999;52.412;4.890;2022-09-13T11:27:27;3.95;;;0.85;;
47259;SDS011;32999;52.412;4.890;2022-09-13T11:32:46;4.20;;;0.90;;
47259;SDS011;32999;52.412;4.890;2022-09-13T11:37:59;5.47;;;0.70;;
47259;SDS011;32999;52.412;4.890;2022-09-13T11:43:24;6.85;;;1.13;;
47259;SDS011;32999;52.412;4.890;2022-09-13T11:54:24;5.30;;;1.00;;
47259;SDS011;32999;52.412;4.890;2022-09-13T11:59:39;4.35;;;1.10;;
47259;SDS011;32999;52.412;4.890;2022-09-13T12:04:49;5.85;;;0.80;;
47259;SDS011;32999;52.412;4.890;2022-09-13T12:10:05;3.05;;;1.00;;
47259;SDS011;32999;52.412;4.890;2022-09-13T12:15:16;3.20;;;0.70;;
47259;SDS011;32999;52.412;4.890;2022-09-13T12:20:28;7.18;;;1.00;;
47259;SDS011;32999;52.412;4.890;2022-09-13T12:25:36;4.05;;;0.85;;
47259;SDS011;32999;52.412;4.890;2022-09-13T12:30:50;4.63;;;1.17;;
47259;SDS011;32999;52.412;4.890;2022-09-13T12:36:13;4.15;;;1.02;;
47259;SDS011;32999;52.412;4.890;2022-09-13T12:41:40;5.18;;;0.88;;
47259;SDS011;32999;52.412;4.890;2022-09-13T12:52:28;6.10;;;0.87;;
47259;SDS011;32999;52.412;4.890;2022-09-13T12:57:38;4.15;;;0.88;;
47259;SDS011;32999;52.412;4.890;2022-09-13T13:02:50;3.55;;;0.75;;
47259;SDS011;32999;52.412;4.890;2022-09-13T13:08:00;5.35;;;1.20;;
47259;SDS011;32999;52.412;4.890;2022-09-13T13:13:11;3.83;;;0.90;;
47259;SDS011;32999;52.412;4.890;2022-09-13T13:18:22;11.07;;;1.15;;
47259;SDS011;32999;52.412;4.890;2022-09-13T13:23:29;6.93;;;1.13;;
47259;SDS011;32999;52.412;4.890;2022-09-13T13:29:04;5.00;;;0.93;;
47259;SDS011;32999;52.412;4.890;2022-09-13T13:34:28;4.43;;;0.90;;
47259;SDS011;32999;52.412;4.890;2022-09-13T13:39:41;3.33;;;0.68;;
47259;SDS011;32999;52.412;4.890;2022-09-13T13:45:03;2.85;;;1.10;;
47259;SDS011;32999;52.412;4.890;2022-09-13T13:50:15;4.57;;;0.80;;
47259;SDS011;32999;52.412;4.890;2022-09-13T13:55:30;5.05;;;0.93;;
47259;SDS011;32999;52.412;4.890;2022-09-13T14:00:44;2.35;;;0.80;;
47259;SDS011;32999;52.412;4.890;2022-09-13T14:05:50;4.93;;;0.95;;
47259;SDS011;32999;52.412;4.890;2022-09-13T14:11:00;6.72;;;1.20;;
47259;SDS011;32999;52.412;4.890;2022-09-13T14:16:12;6.53;;;1.20;;
47259;SDS011;32999;52.412;4.890;2022-09-13T14:21:26;3.28;;;1.20;;
47259;SDS011;32999;52.412;4.890;2022-09-13T14:26:30;7.80;;;1.60;;
47259;SDS011;32999;52.412;4.890;2022-09-13T14:31:31;6.03;;;0.93;;
47259;SDS011;32999;52.412;4.890;2022-09-13T14:36:33;5.72;;;1.30;;
47259;SDS011;32999;52.412;4.890;2022-09-13T14:41:37;4.03;;;1.25;;
47259;SDS011;32999;52.412;4.890;2022-09-13T14:46:40;6.90;;;1.33;;
47259;SDS011;32999;52.412;4.890;2022-09-13T14:51:44;3.63;;;0.98;;
47259;SDS011;32999;52.412;4.890;2022-09-13T14:56:51;1.17;;;0.75;;
47259;SDS011;32999;52.412;4.890;2022-09-13T15:01:54;7.13;;;1.30;;
47259;SDS011;32999;52.412;4.890;2022-09-13T15:07:07;6.60;;;1.55;;
47259;SDS011;32999;52.412;4.890;2022-09-13T15:12:19;4.20;;;0.82;;
47259;SDS011;32999;52.412;4.890;2022-09-13T15:17:24;3.00;;;0.77;;
47259;SDS011;32999;52.412;4.890;2022-09-13T15:22:26;4.25;;;1.38;;
47259;SDS011;32999;52.412;4.890;2022-09-13T15:27:41;9.45;;;2.00;;
47259;SDS011;32999;52.412;4.890;2022-09-13T15:32:44;7.75;;;1.55;;
47259;SDS011;32999;52.412;4.890;2022-09-13T15:37:46;7.03;;;1.25;;
47259;SDS011;32999;52.412;4.890;2022-09-13T15:43:00;3.80;;;1.13;;
47259;SDS011;32999;52.412;4.890;2022-09-13T15:48:02;4.60;;;1.05;;
47259;SDS011;32999;52.412;4.890;2022-09-13T15:53:08;4.78;;;1.27;;
47259;SDS011;32999;52.412;4.890;2022-09-13T15:58:13;7.05;;;1.85;;
47259;SDS011;32999;52.412;4.890;2022-09-13T16:03:14;3.90;;;1.53;;
47259;SDS011;32999;52.412;4.890;2022-09-13T16:08:16;5.10;;;1.05;;
47259;SDS011;32999;52.412;4.890;2022-09-13T16:13:19;5.63;;;1.40;;
47259;SDS011;32999;52.412;4.890;2022-09-13T16:18:21;5.55;;;1.27;;
47259;SDS011;32999;52.412;4.890;2022-09-13T16:23:23;7.55;;;1.13;;
47259;SDS011;32999;52.412;4.890;2022-09-13T16:28:27;5.05;;;1.17;;
47259;SDS011;32999;52.412;4.890;2022-09-13T16:33:28;7.53;;;1.67;;
47259;SDS011;32999;52.412;4.890;2022-09-13T16:38:30;5.72;;;1.50;;
47259;SDS011;32999;52.412;4.890;2022-09-13T16:43:33;6.90;;;1.67;;
47259;SDS011;32999;52.412;4.890;2022-09-13T16:48:35;15.53;;;2.17;;
47259;SDS011;32999;52.412;4.890;2022-09-13T16:53:38;9.80;;;1.48;;
47259;SDS011;32999;52.412;4.890;2022-09-13T16:58:42;7.18;;;1.25;;
47259;SDS011;32999;52.412;4.890;2022-09-13T17:03:46;9.90;;;1.50;;
47259;SDS011;32999;52.412;4.890;2022-09-13T17:08:49;10.93;;;1.88;;
47259;SDS011;32999;52.412;4.890;2022-09-13T17:13:53;8.93;;;2.17;;
47259;SDS011;32999;52.412;4.890;2022-09-13T17:18:56;7.40;;;1.60;;
47259;SDS011;32999;52.412;4.890;2022-09-13T17:23:59;6.43;;;1.47;;
47259;SDS011;32999;52.412;4.890;2022-09-13T17:29:02;4.70;;;1.13;;
47259;SDS011;32999;52.412;4.890;2022-09-13T17:34:04;8.20;;;1.40;;
47259;SDS011;32999;52.412;4.890;2022-09-13T17:39:06;8.50;;;1.92;;
47259;SDS011;32999;52.412;4.890;2022-09-13T17:44:09;9.07;;;1.50;;
47259;SDS011;32999;52.412;4.890;2022-09-13T17:49:11;7.87;;;1.50;;
47259;SDS011;32999;52.412;4.890;2022-09-13T17:54:12;4.65;;;1.40;;
47259;SDS011;32999;52.412;4.890;2022-09-13T17:59:16;12.65;;;1.35;;
47259;SDS011;32999;52.412;4.890;2022-09-13T18:04:19;6.75;;;1.05;;
47259;SDS011;32999;52.412;4.890;2022-09-13T18:09:22;9.98;;;1.55;;
47259;SDS011;32999;52.412;4.890;2022-09-13T18:14:27;6.37;;;1.43;;
47259;SDS011;32999;52.412;4.890;2022-09-13T18:19:28;8.18;;;1.60;;
47259;SDS011;32999;52.412;4.890;2022-09-13T18:24:31;9.90;;;1.90;;
47259;SDS011;32999;52.412;4.890;2022-09-13T18:29:35;6.28;;;1.48;;
47259;SDS011;32999;52.412;4.890;2022-09-13T18:34:36;8.50;;;1.98;;
47259;SDS011;32999;52.412;4.890;2022-09-13T18:39:41;7.07;;;1.52;;
47259;SDS011;32999;52.412;4.890;2022-09-13T18:44:44;7.88;;;1.52;;
47259;SDS011;32999;52.412;4.890;2022-09-13T18:49:46;9.57;;;1.50;;
47259;SDS011;32999;52.412;4.890;2022-09-13T18:54:48;11.32;;;3.35;;
47259;SDS011;32999;52.412;4.890;2022-09-13T18:59:52;7.35;;;1.40;;
47259;SDS011;32999;52.412;4.890;2022-09-13T19:04:54;4.93;;;1.08;;
47259;SDS011;32999;52.412;4.890;2022-09-13T19:09:56;8.43;;;1.42;;
47259;SDS011;32999;52.412;4.890;2022-09-13T19:15:01;8.63;;;1.25;;
47259;SDS011;32999;52.412;4.890;2022-09-13T19:20:03;10.88;;;1.73;;
47259;SDS011;32999;52.412;4.890;2022-09-13T19:25:06;10.50;;;1.40;;
47259;SDS011;32999;52.412;4.890;2022-09-13T19:30:10;9.07;;;1.60;;
47259;SDS011;32999;52.412;4.890;2022-09-13T19:35:13;8.05;;;1.52;;
47259;SDS011;32999;52.412;4.890;2022-09-13T19:40:15;6.97;;;1.50;;
47259;SDS011;32999;52.412;4.890;2022-09-13T19:45:18;6.38;;;1.70;;
47259;SDS011;32999;52.412;4.890;2022-09-13T19:50:19;5.05;;;1.45;;
47259;SDS011;32999;52.412;4.890;2022-09-13T19:55:21;5.38;;;1.08;;
47259;SDS011;32999;52.412;4.890;2022-09-13T20:00:24;7.38;;;1.25;;
47259;SDS011;32999;52.412;4.890;2022-09-13T20:05:26;7.63;;;1.92;;
47259;SDS011;32999;52.412;4.890;2022-09-13T20:10:28;3.83;;;1.35;;
47259;SDS011;32999;52.412;4.890;2022-09-13T20:15:31;4.30;;;1.17;;
47259;SDS011;32999;52.412;4.890;2022-09-13T20:20:33;8.30;;;1.00;;
47259;SDS011;32999;52.412;4.890;2022-09-13T20:25:35;3.45;;;1.70;;
47259;SDS011;32999;52.412;4.890;2022-09-13T20:30:42;6.00;;;1.48;;
47259;SDS011;32999;52.412;4.890;2022-09-13T20:35:53;10.38;;;1.70;;
47259;SDS011;32999;52.412;4.890;2022-09-13T20:40:54;6.38;;;1.33;;
47259;SDS011;32999;52.412;4.890;2022-09-13T20:45:57;7.15;;;1.42;;
47259;SDS011;32999;52.412;4.890;2022-09-13T20:50:59;6.43;;;1.30;;
47259;SDS011;32999;52.412;4.890;2022-09-13T20:56:02;19.80;;;3.03;;
47259;SDS011;32999;52.412;4.890;2022-09-13T21:01:07;7.07;;;1.50;;
47259;SDS011;32999;52.412;4.890;2022-09-13T21:06:11;5.13;;;1.10;;
47259;SDS011;32999;52.412;4.890;2022-09-13T21:11:13;5.43;;;1.05;;
47259;SDS011;32999;52.412;4.890;2022-09-13T21:16:18;5.43;;;1.90;;
47259;SDS011;32999;52.412;4.890;2022-09-13T21:21:23;7.28;;;1.20;;
47259;SDS011;32999;52.412;4.890;2022-09-13T21:26:28;4.40;;;0.80;;
47259;SDS011;32999;52.412;4.890;2022-09-13T21:31:32;7.63;;;1.30;;
47259;SDS011;32999;52.412;4.890;2022-09-13T21:36:34;5.53;;;1.50;;
47259;SDS011;32999;52.412;4.890;2022-09-13T21:41:36;6.82;;;1.17;;
47259;SDS011;32999;52.412;4.890;2022-09-13T21:46:40;7.88;;;1.17;;
47259;SDS011;32999;52.412;4.890;2022-09-13T21:51:43;5.00;;;1.02;;
47259;SDS011;32999;52.412;4.890;2022-09-13T21:56:47;5.43;;;0.88;;
47259;SDS011;32999;52.412;4.890;2022-09-13T22:01:51;6.45;;;0.95;;
47259;SDS011;32999;52.412;4.890;2022-09-13T22:06:53;4.67;;;0.87;;
47259;SDS011;32999;52.412;4.890;2022-09-13T22:11:55;7.13;;;1.33;;
47259;SDS011;32999;52.412;4.890;2022-09-13T22:16:58;6.38;;;1.08;;
47259;SDS011;32999;52.412;4.890;2022-09-13T22:22:00;4.57;;;1.80;;
47259;SDS011;32999;52.412;4.890;2022-09-13T22:27:02;4.88;;;1.42;;
47259;SDS011;32999;52.412;4.890;2022-09-13T22:32:06;5.85;;;1.60;;
47259;SDS011;32999;52.412;4.890;2022-09-13T22:37:08;3.25;;;1.48;;
47259;SDS011;32999;52.412;4.890;2022-09-13T22:42:09;3.38;;;1.50;;
47259;SDS011;32999;52.412;4.890;2022-09-13T22:47:12;6.70;;;1.95;;
47259;SDS011;32999;52.412;4.890;2022-09-13T22:52:14;7.30;;;1.95;;
47259;SDS011;32999;52.412;4.890;2022-09-13T22:57:16;6.60;;;1.48;;
47259;SDS011;32999;52.412;4.890;2022-09-13T23:02:19;5.88;;;2.28;;
47259;SDS011;32999;52.412;4.890;2022-09-13T23:07:20;8.65;;;4.97;;
47259;SDS011;32999;52.412;4.890;2022-09-13T23:12:23;4.88;;;2.08;;
47259;SDS011;32999;52.412;4.890;2022-09-13T23:17:26;4.80;;;1.20;;
47259;SDS011;32999;52.412;4.890;2022-09-13T23:22:28;5.00;;;1.38;;
47259;SDS011;32999;52.412;4.890;2022-09-13T23:27:29;5.40;;;1.00;;
47259;SDS011;32999;52.412;4.890;2022-09-13T23:32:32;5.55;;;1.35;;
47259;SDS011;32999;52.412;4.890;2022-09-13T23:37:34;2.47;;;0.98;;
47259;SDS011;32999;52.412;4.890;2022-09-13T23:42:36;4.63;;;1.13;;
47259;SDS011;32999;52.412;4.890;2022-09-13T23:47:39;4.35;;;1.10;;
47259;SDS011;32999;52.412;4.890;2022-09-13T23:52:40;2.97;;;1.25;;
47259;SDS011;32999;52.412;4.890;2022-09-13T23:57:42;8.13;;;1.50;;
